Time;durP1;ratioP1;P1;durP2;ratioP2;P2;SDS_P1;SDS_P2;PMS_P1;PMS_P2;Temp;Humidity;BMP_temperature;BMP_pressure;BME280_temperature;BME280_humidity;BME280_pressure;Samples;Min_cycle;Max_cycle;Signal;HPM_P1;HPM_P2
2022/06/19 00:02:11;;;;;;;68.88;52.47;;;25.70;60.20;;;;;;4927022;28;89989;-72
2022/06/19 00:04:38;;;;;;;70.75;52.83;;;25.60;59.80;;;;;;4927817;28;89791;-72
2022/06/19 00:07:04;;;;;;;73.15;52.50;;;25.60;60.30;;;;;;4925638;28;90070;-72
2022/06/19 00:09:29;;;;;;;70.57;52.58;;;25.50;60.60;;;;;;4897466;28;96109;-72
2022/06/19 00:11:55;;;;;;;70.35;52.63;;;25.40;60.20;;;;;;4921289;28;90568;-72
2022/06/19 00:14:22;;;;;;;70.82;52.55;;;25.40;60.90;;;;;;4924972;28;90149;-72
2022/06/19 00:16:49;;;;;;;70.88;52.25;;;25.20;60.90;;;;;;4918359;28;91575;-71
2022/06/19 00:19:15;;;;;;;68.85;52.42;;;25.20;60.50;;;;;;4931780;28;93121;-72
2022/06/19 00:21:40;;;;;;;71.97;52.50;;;25.20;60.00;;;;;;4923901;28;90016;-72
2022/06/19 00:24:07;;;;;;;69.75;52.28;;;25.10;60.30;;;;;;4919592;28;91343;-72
2022/06/19 00:26:33;;;;;;;71.25;52.45;;;25.20;61.10;;;;;;4905870;28;89060;-72
2022/06/19 00:28:58;;;;;;;70.25;52.17;;;25.10;60.50;;;;;;4925798;28;90897;-72
2022/06/19 00:31:26;;;;;;;70.15;52.42;;;25.10;60.70;;;;;;4918602;28;91576;-72
2022/06/19 00:33:55;;;;;;;75.07;52.40;;;25.00;60.70;;;;;;4905758;28;90845;-72
2022/06/19 00:36:21;;;;;;;70.20;52.55;;;24.90;60.50;;;;;;4914810;28;89641;-72
2022/06/19 00:38:48;;;;;;;70.53;52.38;;;25.00;61.70;;;;;;4914809;28;91427;-72
2022/06/19 00:41:14;;;;;;;69.03;52.22;;;25.00;60.20;;;;;;4920927;28;91496;-72
2022/06/19 00:43:55;;;;;;;69.38;52.17;;;25.00;60.40;;;;;;4932914;28;90833;-72
2022/06/19 00:46:40;;;;;;;71.97;52.33;;;25.00;60.40;;;;;;4924062;28;91591;-72
2022/06/19 00:49:12;;;;;;;71.75;52.10;;;24.90;59.90;;;;;;4932641;28;91083;-72
2022/06/19 00:51:38;;;;;;;70.43;52.05;;;24.80;60.30;;;;;;4934316;28;90291;-72
2022/06/19 00:54:07;;;;;;;73.80;52.03;;;24.90;61.20;;;;;;4904581;28;91224;-71
2022/06/19 00:56:33;;;;;;;70.10;51.90;;;24.90;60.50;;;;;;4924172;28;90203;-71
2022/06/19 00:58:58;;;;;;;70.72;51.83;;;24.80;59.70;;;;;;4925910;28;94028;-72
2022/06/19 01:01:26;;;;;;;69.38;51.83;;;24.80;60.80;;;;;;4909049;28;95291;-72
2022/06/19 01:03:56;;;;;;;70.07;51.88;;;24.80;61.00;;;;;;4925068;28;91186;-72
2022/06/19 01:06:22;;;;;;;70.85;51.85;;;24.80;59.40;;;;;;4923956;28;89938;-72
2022/06/19 01:08:48;;;;;;;74.15;52.40;;;24.80;59.70;;;;;;4858648;28;1297143;-72
2022/06/19 01:11:16;;;;;;;69.93;52.05;;;24.70;60.70;;;;;;4919156;28;90306;-72
2022/06/19 01:13:42;;;;;;;73.00;52.00;;;24.80;60.70;;;;;;4921153;28;91273;-71
2022/06/19 01:16:08;;;;;;;72.00;51.90;;;24.80;60.50;;;;;;4928159;28;89250;-71
2022/06/19 01:18:36;;;;;;;69.63;52.03;;;24.70;60.70;;;;;;4922017;28;91042;-72
2022/06/19 01:21:32;;;;;;;70.70;51.92;;;24.80;61.10;;;;;;4921181;28;89659;-72
2022/06/19 01:24:21;;;;;;;69.93;52.03;;;24.80;60.60;;;;;;4914101;28;93298;-72
2022/06/19 01:26:49;;;;;;;69.07;51.97;;;24.80;60.10;;;;;;4920288;28;91453;-72
2022/06/19 01:29:18;;;;;;;70.00;52.03;;;24.90;60.40;;;;;;4919432;28;91542;-71
2022/06/19 01:31:49;;;;;;;69.20;51.88;;;24.80;60.10;;;;;;4921725;28;91649;-72
2022/06/19 01:34:29;;;;;;;73.32;52.05;;;24.80;61.00;;;;;;4928210;28;91079;-72
2022/06/19 01:37:07;;;;;;;69.72;51.90;;;24.80;60.40;;;;;;4928921;28;91437;-72
2022/06/19 01:40:09;;;;;;;71.95;51.92;;;24.80;60.80;;;;;;4906350;28;94647;-72
2022/06/19 01:42:35;;;;;;;67.82;51.95;;;24.80;60.40;;;;;;4930932;28;90992;-72
2022/06/19 01:45:01;;;;;;;69.30;51.67;;;24.80;61.00;;;;;;4923749;28;91037;-72
2022/06/19 01:47:27;;;;;;;68.65;51.63;;;24.80;60.40;;;;;;4926297;28;90000;-72
2022/06/19 01:49:55;;;;;;;68.45;51.70;;;24.80;60.90;;;;;;4918005;28;96995;-72
2022/06/19 01:52:23;;;;;;;69.72;51.85;;;24.90;60.20;;;;;;4922520;28;90764;-72
2022/06/19 01:55:01;;;;;;;67.78;51.85;;;24.80;60.40;;;;;;4917338;28;90237;-72
2022/06/19 01:57:27;;;;;;;67.97;51.65;;;24.80;60.70;;;;;;4925440;28;90331;-72
2022/06/19 01:59:53;;;;;;;69.30;51.97;;;24.80;60.90;;;;;;4921908;28;95456;-72
2022/06/19 02:02:20;;;;;;;69.07;51.72;;;24.80;61.20;;;;;;4924908;28;91437;-72
2022/06/19 02:04:46;;;;;;;66.95;51.55;;;24.80;60.90;;;;;;4919496;28;90066;-72
2022/06/19 02:07:18;;;;;;;68.05;51.70;;;24.80;61.00;;;;;;4906665;28;91039;-72
2022/06/19 02:09:46;;;;;;;68.25;51.85;;;24.80;61.00;;;;;;4915089;28;90028;-72
2022/06/19 02:12:12;;;;;;;66.80;51.53;;;24.70;61.00;;;;;;4909118;28;96551;-72
2022/06/19 02:14:37;;;;;;;69.15;51.72;;;24.70;60.90;;;;;;4921716;28;91111;-72
2022/06/19 02:17:21;;;;;;;68.38;51.45;;;24.70;61.10;;;;;;4925354;28;93152;-72
2022/06/19 02:19:47;;;;;;;67.45;51.72;;;24.70;60.30;;;;;;4918431;28;91907;-72
2022/06/19 02:22:15;;;;;;;68.13;51.60;;;24.60;60.40;;;;;;4920090;28;96165;-71
2022/06/19 02:24:42;;;;;;;68.10;51.67;;;24.60;60.50;;;;;;4917777;28;95118;-71
2022/06/19 02:27:09;;;;;;;68.03;51.72;;;24.60;61.10;;;;;;4927895;28;90738;-72
2022/06/19 02:29:37;;;;;;;68.88;51.55;;;24.60;61.10;;;;;;4927884;28;91243;-72
2022/06/19 02:32:04;;;;;;;68.60;51.28;;;24.60;61.00;;;;;;4922980;28;91571;-72
2022/06/19 02:34:37;;;;;;;68.38;51.60;;;24.50;61.00;;;;;;4901276;28;90002;-72
2022/06/19 02:37:14;;;;;;;66.38;51.28;;;24.60;61.10;;;;;;4926708;28;90302;-72
2022/06/19 02:39:43;;;;;;;68.18;51.42;;;24.60;61.10;;;;;;4905432;28;93247;-72
2022/06/19 02:42:20;;;;;;;67.18;51.30;;;24.60;61.20;;;;;;4930083;28;91220;-71
2022/06/19 02:44:55;;;;;;;68.97;51.45;;;24.60;61.10;;;;;;4923192;28;90019;-72
2022/06/19 02:47:27;;;;;;;70.97;51.28;;;24.60;60.50;;;;;;4925875;28;96386;-72
2022/06/19 02:49:52;;;;;;;;;;;24.50;60.60;;;;;;4918471;28;92150;-72
2022/06/19 02:52:18;;;;;;;67.75;51.33;;;24.50;60.60;;;;;;4924269;28;89578;-72
2022/06/19 02:54:45;;;;;;;68.22;51.33;;;24.50;61.00;;;;;;4917163;28;94308;-71
2022/06/19 02:57:13;;;;;;;70.55;51.47;;;24.50;61.00;;;;;;4920074;28;92328;-72
2022/06/19 02:59:40;;;;;;;67.03;51.17;;;24.50;61.00;;;;;;4911500;28;91360;-72
2022/06/19 03:02:07;;;;;;;67.90;51.17;;;24.50;60.90;;;;;;4907317;28;91771;-72
2022/06/19 03:04:39;;;;;;;67.00;51.30;;;24.50;61.20;;;;;;4924066;28;90895;-72
2022/06/19 03:07:06;;;;;;;66.50;51.25;;;24.50;61.50;;;;;;4922642;28;91215;-72
2022/06/19 03:09:31;;;;;;;68.22;51.25;;;24.50;61.10;;;;;;4895665;28;92036;-72
2022/06/19 03:11:57;;;;;;;66.97;51.28;;;24.50;61.20;;;;;;4927318;28;90648;-72
2022/06/19 03:14:24;;;;;;;66.32;51.05;;;24.50;61.30;;;;;;4908331;28;92565;-72
2022/06/19 03:16:51;;;;;;;67.00;51.28;;;24.50;61.30;;;;;;4923934;28;92493;-72
2022/06/19 03:19:17;;;;;;;67.40;51.22;;;24.50;61.30;;;;;;4917082;28;91802;-72
2022/06/19 03:21:42;;;;;;;66.03;51.10;;;24.50;61.20;;;;;;4919621;28;89906;-72
2022/06/19 03:24:09;;;;;;;68.03;51.35;;;24.50;61.00;;;;;;4914186;28;90500;-71
2022/06/19 03:26:35;;;;;;;67.72;51.20;;;24.40;61.20;;;;;;4927379;28;92692;-72
2022/06/19 03:29:01;;;;;;;66.20;50.90;;;24.50;61.20;;;;;;4923024;28;93774;-71
2022/06/19 03:31:29;;;;;;;67.20;50.90;;;24.40;61.10;;;;;;4897903;28;95120;-72
2022/06/19 03:33:55;;;;;;;65.28;50.85;;;24.40;61.00;;;;;;4928885;28;92248;-72
2022/06/19 03:36:21;;;;;;;67.63;51.25;;;24.40;61.00;;;;;;4902692;28;89639;-72
2022/06/19 03:38:47;;;;;;;66.28;51.08;;;24.40;61.00;;;;;;4921494;28;90183;-72
2022/06/19 03:41:14;;;;;;;65.72;51.00;;;24.40;60.80;;;;;;4905623;28;92863;-71
2022/06/19 03:43:40;;;;;;;66.70;50.88;;;24.50;60.80;;;;;;4930770;28;95680;-72
2022/06/19 03:46:14;;;;;;;66.60;51.05;;;24.50;60.70;;;;;;4918766;28;93199;-72
2022/06/19 03:48:46;;;;;;;65.40;51.05;;;24.50;60.70;;;;;;4922577;28;90424;-72
2022/06/19 03:51:12;;;;;;;66.25;51.33;;;24.50;60.60;;;;;;4919586;28;91552;-72
2022/06/19 03:53:38;;;;;;;68.55;51.45;;;24.40;60.60;;;;;;4923504;28;92721;-72
2022/06/19 03:56:05;;;;;;;66.97;51.15;;;24.50;60.60;;;;;;4900921;28;89964;-72
2022/06/19 03:58:46;;;;;;;67.60;51.00;;;24.50;60.40;;;;;;4928877;28;97069;-72
2022/06/19 04:01:26;;;;;;;66.53;50.92;;;24.50;60.30;;;;;;4893982;28;92428;-72
2022/06/19 04:03:54;;;;;;;65.97;50.97;;;24.50;60.10;;;;;;4926406;28;91445;-72
2022/06/19 04:06:26;;;;;;;66.93;51.03;;;24.40;59.80;;;;;;4916029;28;91041;-72
2022/06/19 04:08:53;;;;;;;68.13;51.10;;;24.50;60.20;;;;;;4916529;28;91697;-72
2022/06/19 04:11:20;;;;;;;66.53;50.88;;;24.50;60.20;;;;;;4918476;28;95451;-72
2022/06/19 04:13:46;;;;;;;67.32;50.95;;;24.40;60.00;;;;;;4925156;28;90797;-72
2022/06/19 04:16:19;;;;;;;67.47;51.05;;;24.40;59.90;;;;;;4921401;28;92162;-71
2022/06/19 04:18:49;;;;;;;66.00;50.95;;;24.40;60.00;;;;;;4908714;28;91317;-72
2022/06/19 04:21:17;;;;;;;67.32;51.15;;;24.40;60.30;;;;;;4923060;28;92040;-72
2022/06/19 04:23:43;;;;;;;66.95;50.97;;;24.50;60.50;;;;;;4922598;28;89706;-72
2022/06/19 04:26:11;;;;;;;66.18;50.83;;;24.40;59.70;;;;;;4924748;28;93169;-71
2022/06/19 04:28:37;;;;;;;66.35;50.92;;;24.40;60.00;;;;;;4929365;28;90067;-71
2022/06/19 04:31:03;;;;;;;66.85;51.03;;;24.50;60.00;;;;;;4913092;28;91263;-72
2022/06/19 04:33:30;;;;;;;66.07;51.03;;;24.40;59.50;;;;;;4931419;28;90608;-72
2022/06/19 04:35:56;;;;;;;67.30;51.08;;;24.40;59.50;;;;;;4927777;28;89997;-72
2022/06/19 04:38:21;;;;;;;68.90;51.20;;;24.40;59.60;;;;;;4904718;28;92583;-72
2022/06/19 04:40:47;;;;;;;66.93;51.15;;;24.40;59.90;;;;;;4923909;28;93302;-71
2022/06/19 04:43:13;;;;;;;66.40;50.90;;;24.40;60.10;;;;;;4924820;28;93754;-72
2022/06/19 04:45:39;;;;;;;66.65;50.88;;;24.40;59.90;;;;;;4920593;28;91917;-72
2022/06/19 04:48:06;;;;;;;66.82;51.15;;;24.40;59.70;;;;;;4926299;28;90971;-72
2022/06/19 04:50:32;;;;;;;66.65;50.95;;;24.40;59.80;;;;;;4930532;28;95192;-72
2022/06/19 04:52:58;;;;;;;66.60;51.05;;;24.40;59.80;;;;;;4926936;28;91107;-71
2022/06/19 04:55:24;;;;;;;65.68;50.70;;;24.40;59.80;;;;;;4924792;28;92889;-71
2022/06/19 04:57:49;;;;;;;67.05;51.25;;;24.40;59.50;;;;;;4922633;28;90053;-72
2022/06/19 05:00:19;;;;;;;67.63;50.88;;;24.30;59.50;;;;;;4925866;28;90277;-72
2022/06/19 05:02:48;;;;;;;65.90;50.83;;;24.20;59.80;;;;;;4909390;28;90444;-72
2022/06/19 05:05:17;;;;;;;65.38;50.95;;;24.30;59.90;;;;;;4925979;28;89850;-72
2022/06/19 05:07:43;;;;;;;67.82;51.05;;;24.30;59.80;;;;;;4930122;28;91796;-72
2022/06/19 05:10:10;;;;;;;64.68;50.95;;;24.20;59.40;;;;;;4913533;28;90589;-72
2022/06/19 05:12:36;;;;;;;66.57;50.65;;;24.20;59.70;;;;;;4920161;28;91484;-72
2022/06/19 05:15:03;;;;;;;64.53;50.65;;;24.20;59.50;;;;;;4907759;28;90320;-71
2022/06/19 05:17:28;;;;;;;66.90;50.83;;;24.20;59.70;;;;;;4905761;28;92617;-72
2022/06/19 05:19:54;;;;;;;66.55;50.83;;;24.20;59.80;;;;;;4910025;28;93783;-72
2022/06/19 05:22:20;;;;;;;65.63;50.65;;;24.20;60.00;;;;;;4929536;28;92095;-72
2022/06/19 05:24:45;;;;;;;66.82;50.60;;;24.20;60.10;;;;;;4914047;28;89313;-72
2022/06/19 05:27:11;;;;;;;66.00;50.75;;;24.20;60.00;;;;;;4918343;28;91231;-71
2022/06/19 05:29:38;;;;;;;65.25;50.75;;;24.20;60.00;;;;;;4929746;28;90915;-72
2022/06/19 05:32:04;;;;;;;65.35;50.42;;;24.20;59.70;;;;;;4922085;28;91983;-72
2022/06/19 05:34:31;;;;;;;65.22;50.70;;;24.20;59.70;;;;;;4903593;28;91112;-72
2022/06/19 05:36:57;;;;;;;65.82;50.72;;;24.20;59.70;;;;;;4921598;28;92120;-72
2022/06/19 05:39:23;;;;;;;65.45;50.75;;;24.20;59.80;;;;;;4921100;28;91000;-72
2022/06/19 05:41:48;;;;;;;65.63;50.95;;;24.10;60.00;;;;;;4923151;28;91509;-72
2022/06/19 05:44:14;;;;;;;64.97;50.85;;;24.10;60.10;;;;;;4924000;28;91244;-71
2022/06/19 05:46:41;;;;;;;66.68;50.95;;;24.10;59.50;;;;;;4927796;28;94761;-71
2022/06/19 05:49:08;;;;;;;65.10;50.80;;;24.10;60.20;;;;;;4925025;28;89960;-73
2022/06/19 05:51:34;;;;;;;65.15;50.83;;;24.10;60.00;;;;;;4931805;28;94681;-71
2022/06/19 05:54:00;;;;;;;65.00;50.70;;;24.10;60.20;;;;;;4911367;28;93258;-72
2022/06/19 05:56:28;;;;;;;66.78;50.80;;;24.10;60.00;;;;;;4932510;28;91995;-74
2022/06/19 05:58:53;;;;;;;65.50;50.72;;;24.00;59.50;;;;;;4936747;28;91562;-72
2022/06/19 06:01:21;;;;;;;66.47;50.85;;;23.90;59.70;;;;;;4924284;28;90486;-73
2022/06/19 06:03:47;;;;;;;66.65;51.05;;;24.00;60.10;;;;;;4925948;28;94741;-72
2022/06/19 06:06:16;;;;;;;66.43;50.83;;;24.00;60.10;;;;;;4930558;28;96026;-72
2022/06/19 06:08:42;;;;;;;65.78;50.65;;;24.00;60.00;;;;;;4928614;28;90705;-71
2022/06/19 06:11:08;;;;;;;66.05;50.78;;;24.00;60.10;;;;;;4921547;28;91219;-72
2022/06/19 06:13:34;;;;;;;68.95;50.92;;;24.00;60.30;;;;;;4923956;28;90852;-72
2022/06/19 06:16:00;;;;;;;65.45;50.67;;;24.00;60.30;;;;;;4903696;28;92059;-72
2022/06/19 06:18:26;;;;;;;66.28;51.03;;;24.00;60.30;;;;;;4920357;28;90928;-72
2022/06/19 06:21:01;;;;;;;65.97;50.67;;;23.90;60.20;;;;;;4910230;28;91435;-72
2022/06/19 06:23:28;;;;;;;66.05;50.88;;;23.90;61.00;;;;;;4904113;28;91300;-72
2022/06/19 06:26:02;;;;;;;67.03;51.10;;;23.90;60.60;;;;;;4906117;28;94825;-72
2022/06/19 06:28:28;;;;;;;65.43;50.45;;;23.90;60.30;;;;;;4929410;28;91547;-73
2022/06/19 06:30:54;;;;;;;65.63;50.55;;;24.00;60.50;;;;;;4927404;28;90572;-72
2022/06/19 06:33:20;;;;;;;66.72;50.85;;;24.00;60.40;;;;;;4920364;28;91781;-72
2022/06/19 06:35:46;;;;;;;66.07;50.75;;;23.90;60.30;;;;;;4906282;28;92788;-73
2022/06/19 06:38:12;;;;;;;66.88;50.75;;;23.90;60.30;;;;;;4907208;28;91451;-72
2022/06/19 06:40:38;;;;;;;67.28;50.75;;;24.00;60.50;;;;;;4919049;28;89560;-73
2022/06/19 06:43:03;;;;;;;66.30;50.75;;;24.00;60.30;;;;;;4899344;28;92073;-72
2022/06/19 06:45:29;;;;;;;65.82;50.72;;;24.00;60.30;;;;;;4916419;28;96453;-72
2022/06/19 06:47:55;;;;;;;67.35;50.83;;;24.00;60.40;;;;;;4905558;28;91033;-73
2022/06/19 06:50:21;;;;;;;66.07;50.88;;;23.90;60.50;;;;;;4929989;28;91710;-72
2022/06/19 06:52:46;;;;;;;66.47;50.83;;;23.90;60.50;;;;;;4920492;28;92213;-72
2022/06/19 06:55:13;;;;;;;65.53;50.63;;;24.00;60.40;;;;;;4919397;28;91901;-72
2022/06/19 06:57:39;;;;;;;64.60;50.72;;;23.90;60.60;;;;;;4919003;28;90647;-73
2022/06/19 07:00:07;;;;;;;66.82;50.95;;;24.00;60.50;;;;;;4908054;28;90654;-72
2022/06/19 07:02:33;;;;;;;66.00;50.72;;;24.00;60.40;;;;;;4928774;28;90781;-72
2022/06/19 07:04:58;;;;;;;65.70;50.63;;;24.00;60.40;;;;;;4918666;28;90843;-72
2022/06/19 07:07:24;;;;;;;64.95;50.85;;;24.00;60.30;;;;;;4915537;28;91778;-72
2022/06/19 07:09:50;;;;;;;69.18;51.15;;;24.00;60.30;;;;;;4921456;28;92245;-72
2022/06/19 07:12:15;;;;;;;66.68;50.83;;;24.00;60.10;;;;;;4923997;28;90233;-72
2022/06/19 07:14:41;;;;;;;67.05;51.13;;;24.00;60.90;;;;;;4908560;28;91081;-72
2022/06/19 07:17:07;;;;;;;64.75;50.85;;;24.00;60.00;;;;;;4922020;28;90256;-72
2022/06/19 07:19:33;;;;;;;66.40;50.83;;;24.00;60.00;;;;;;4921234;28;91154;-72
2022/06/19 07:21:58;;;;;;;65.53;50.75;;;24.00;60.20;;;;;;4921281;28;91137;-72
2022/06/19 07:24:25;;;;;;;66.68;51.05;;;24.00;60.10;;;;;;4924529;28;90277;-74
2022/06/19 07:26:51;;;;;;;66.22;51.08;;;24.00;60.00;;;;;;4926208;28;90438;-72
2022/06/19 07:29:17;;;;;;;66.28;51.08;;;24.00;59.70;;;;;;4900706;28;90013;-71
2022/06/19 07:31:43;;;;;;;66.05;51.22;;;24.00;60.00;;;;;;4928306;28;91922;-72
2022/06/19 07:34:09;;;;;;;66.03;51.03;;;24.00;59.90;;;;;;4916052;28;91500;-71
2022/06/19 07:36:35;;;;;;;66.28;50.78;;;24.00;60.10;;;;;;4913538;28;94672;-72
2022/06/19 07:39:01;;;;;;;66.80;51.00;;;24.00;59.40;;;;;;4919810;28;90581;-72
2022/06/19 07:41:26;;;;;;;66.95;51.13;;;24.00;59.60;;;;;;4916624;28;89543;-72
2022/06/19 07:43:52;;;;;;;65.78;50.72;;;24.00;60.00;;;;;;4920420;28;92608;-72
2022/06/19 07:46:19;;;;;;;67.68;51.03;;;24.10;59.90;;;;;;4917907;28;94684;-72
2022/06/19 07:51:30;;;;;;;67.43;51.25;;;24.00;59.70;;;;;;4925980;28;89346;-72
2022/06/19 07:53:56;;;;;;;66.90;50.85;;;24.00;59.90;;;;;;4911020;28;92545;-73
2022/06/19 07:56:22;;;;;;;66.47;50.75;;;24.10;60.20;;;;;;4914415;28;91719;-74
2022/06/19 07:58:48;;;;;;;64.85;50.75;;;24.10;60.00;;;;;;4914698;28;93079;-72
2022/06/19 08:01:14;;;;;;;65.68;50.78;;;24.10;60.30;;;;;;4911830;28;94592;-74
2022/06/19 08:03:40;;;;;;;66.60;51.15;;;24.10;60.30;;;;;;4917032;28;89922;-71
2022/06/19 08:06:05;;;;;;;70.15;51.45;;;24.00;59.70;;;;;;4914414;28;90182;-74
2022/06/19 08:08:32;;;;;;;69.70;51.90;;;24.10;59.50;;;;;;4903898;28;90565;-71
2022/06/19 08:10:58;;;;;;;71.03;51.72;;;24.10;59.20;;;;;;4887316;28;91229;-71
2022/06/19 08:13:27;;;;;;;71.07;52.00;;;24.20;58.60;;;;;;4922613;28;90511;-73
2022/06/19 08:15:57;;;;;;;76.82;52.50;;;24.30;57.20;;;;;;4919375;28;96071;-73
2022/06/19 08:18:24;;;;;;;76.65;52.70;;;24.20;58.00;;;;;;4928307;28;90747;-71
2022/06/19 08:20:51;;;;;;;73.85;52.53;;;24.00;58.00;;;;;;4926719;28;93100;-72
2022/06/19 08:23:17;;;;;;;74.85;52.80;;;24.00;58.60;;;;;;4910890;28;92146;-72
2022/06/19 08:25:45;;;;;;;74.82;52.95;;;24.10;58.70;;;;;;4919251;28;89944;-72
2022/06/19 08:28:10;;;;;;;72.15;51.92;;;24.10;58.30;;;;;;4932274;28;89905;-73
2022/06/19 08:30:40;;;;;;;71.70;52.10;;;24.10;58.00;;;;;;4915018;28;90470;-73
2022/06/19 08:33:07;;;;;;;73.63;52.60;;;24.00;57.70;;;;;;4924578;28;90752;-73
2022/06/19 08:35:41;;;;;;;74.00;52.33;;;24.00;58.30;;;;;;4906884;28;92318;-72
2022/06/19 08:38:14;;;;;;;72.97;51.92;;;24.00;58.20;;;;;;4917469;28;91798;-73
2022/06/19 08:41:01;;;;;;;72.75;52.05;;;24.10;58.00;;;;;;4912409;28;91460;-74
2022/06/19 08:44:02;;;;;;;68.78;51.70;;;24.10;57.70;;;;;;4921628;28;91875;-74
2022/06/19 08:46:43;;;;;;;68.03;51.70;;;24.20;57.50;;;;;;4923274;28;90334;-75
2022/06/19 08:49:19;;;;;;;70.03;52.03;;;24.20;57.50;;;;;;4916084;28;92487;-74
2022/06/19 08:52:02;;;;;;;69.65;51.97;;;24.10;57.70;;;;;;4917285;28;91936;-70
2022/06/19 08:54:52;;;;;;;75.88;52.22;;;24.10;57.70;;;;;;4896302;28;91163;-73
2022/06/19 08:57:46;;;;;;;70.87;52.23;;;24.40;55.10;;;;;;4900421;28;91132;-71
2022/06/19 09:00:18;;;;;;;71.65;52.00;;;24.40;54.60;;;;;;4934985;28;92562;-73
2022/06/19 09:02:56;;;;;;;69.90;51.88;;;24.50;54.10;;;;;;4928383;28;89828;-73
2022/06/19 09:05:46;;;;;;;72.30;52.10;;;24.50;54.30;;;;;;4919515;28;91542;-72
2022/06/19 09:08:27;;;;;;;74.55;52.38;;;24.50;53.90;;;;;;4920544;28;96195;-73
2022/06/19 09:11:04;;;;;;;71.32;52.03;;;24.50;54.80;;;;;;4891590;28;93147;-75
2022/06/19 09:13:48;;;;;;;71.82;52.22;;;24.40;53.90;;;;;;4920942;28;89690;-75
2022/06/19 09:16:36;;;;;;;76.32;52.17;;;23.70;54.90;;;;;;4903733;28;94187;-75
2022/06/19 09:19:02;;;;;;;72.07;52.45;;;23.70;55.10;;;;;;4912853;28;98924;-74
2022/06/19 09:21:45;;;;;;;73.40;52.35;;;23.80;55.10;;;;;;4892188;28;91891;-75
2022/06/19 09:24:24;;;;;;;73.85;52.55;;;23.40;56.20;;;;;;4925488;28;90435;-74
2022/06/19 09:26:58;;;;;;;72.70;52.20;;;23.30;56.80;;;;;;4887976;28;91022;-75
2022/06/19 09:29:28;;;;;;;70.60;52.45;;;23.40;56.40;;;;;;4905956;28;90935;-74
2022/06/19 09:32:01;;;;;;;74.57;52.97;;;23.20;56.40;;;;;;4907505;28;93940;-75
2022/06/19 09:34:56;;;;;;;78.80;53.83;;;22.90;57.10;;;;;;4921755;28;90895;-75
2022/06/19 09:37:31;;;;;;;79.20;53.47;;;23.10;56.80;;;;;;4900483;28;92075;-74
2022/06/19 09:40:08;;;;;;;74.18;53.22;;;23.00;56.00;;;;;;4901148;28;91342;-74
2022/06/19 09:42:43;;;;;;;76.75;52.85;;;22.70;57.60;;;;;;4900102;28;92980;-74
2022/06/19 09:45:15;;;;;;;73.70;53.00;;;22.60;57.10;;;;;;4900737;28;91068;-73
2022/06/19 09:48:06;;;;;;;73.28;52.83;;;22.80;57.20;;;;;;4906757;28;95594;-74
2022/06/19 09:50:53;;;;;;;;;;;22.60;56.40;;;;;;4910694;28;95745;-73
2022/06/19 09:53:38;;;;;;;74.80;52.72;;;22.60;57.80;;;;;;4902220;28;90121;-74
2022/06/19 09:56:17;;;;;;;70.53;51.97;;;22.70;57.50;;;;;;4902127;28;90432;-73
2022/06/19 09:58:50;;;;;;;75.22;52.25;;;22.70;57.50;;;;;;4893682;28;91668;-73
2022/06/19 10:01:16;;;;;;;72.25;52.65;;;22.90;57.20;;;;;;4898591;28;92412;-73
2022/06/19 10:03:51;;;;;;;75.35;54.20;;;23.00;57.50;;;;;;4918710;28;91521;-73
2022/06/19 10:06:42;;;;;;;72.70;53.53;;;23.00;55.50;;;;;;4920449;28;90223;-73
2022/06/19 10:09:14;;;;;;;;;;;23.30;56.00;;;;;;4899384;28;92562;-73
2022/06/19 10:11:42;;;;;;;76.78;54.45;;;23.40;54.80;;;;;;4909788;28;90712;-74
2022/06/19 10:14:24;;;;;;;74.20;55.58;;;22.90;55.80;;;;;;4898569;28;95340;-72
2022/06/19 10:16:55;;;;;;;72.85;55.00;;;22.70;57.00;;;;;;4889819;28;90723;-76
2022/06/19 10:19:31;;;;;;;73.18;56.42;;;22.70;57.10;;;;;;4893866;28;92425;-74
2022/06/19 10:22:16;;;;;;;75.35;56.67;;;23.00;56.60;;;;;;4901479;28;90386;-71
2022/06/19 10:25:01;;;;;;;74.97;56.75;;;23.10;56.80;;;;;;4896839;28;91091;-73
2022/06/19 10:27:42;;;;;;;76.85;58.38;;;22.90;56.60;;;;;;4911489;28;89823;-74
2022/06/19 10:30:22;;;;;;;74.45;56.45;;;23.00;56.70;;;;;;4909155;28;91401;-72
2022/06/19 10:33:06;;;;;;;76.22;56.42;;;23.00;56.70;;;;;;4907120;28;91627;-74
2022/06/19 10:35:48;;;;;;;73.75;55.22;;;23.00;57.30;;;;;;4914095;28;93747;-75
2022/06/19 10:38:39;;;;;;;75.10;54.47;;;22.60;57.60;;;;;;4914168;28;95670;-76
2022/06/19 10:42:00;;;;;;;74.20;54.30;;;22.90;57.70;;;;;;4882111;28;92419;-75
2022/06/19 10:44:27;;;;;;;70.28;53.53;;;22.90;57.70;;;;;;4909460;28;90989;-74
2022/06/19 10:47:07;;;;;;;72.57;52.97;;;22.80;57.90;;;;;;4898162;28;95407;-76
2022/06/19 10:49:44;;;;;;;74.20;52.75;;;22.70;59.00;;;;;;4944982;28;90032;-76
2022/06/19 10:52:31;;;;;;;74.13;52.60;;;22.90;58.20;;;;;;4925889;28;91379;-72
2022/06/19 10:55:20;;;;;;;70.65;51.90;;;22.90;58.20;;;;;;4937248;28;89518;-76
2022/06/19 10:57:52;;;;;;;70.15;51.45;;;22.70;57.90;;;;;;4944157;28;92094;-74
2022/06/19 11:00:17;;;;;;;69.53;51.95;;;22.30;56.70;;;;;;4948823;28;86608;-74
2022/06/19 11:06:00;;;;;;;70.57;52.38;;;22.20;58.00;;;;;;4961579;28;79546;-76
2022/06/19 11:08:35;;;;;;;71.93;52.15;;;22.40;59.10;;;;;;4961741;28;82218;-73
2022/06/19 11:11:01;;;;;;;71.93;51.85;;;22.10;58.60;;;;;;4942627;28;80857;-75
2022/06/19 11:14:07;;;;;;;73.30;52.72;;;21.80;58.50;;;;;;4932685;28;84725;-73
2022/06/19 11:16:50;;;;;;;73.95;52.78;;;21.80;59.30;;;;;;4954328;28;90962;-73
2022/06/19 11:19:35;;;;;;;70.60;52.58;;;22.20;58.70;;;;;;4951422;28;88048;-75
2022/06/19 11:22:04;;;;;;;78.13;54.70;;;21.90;59.60;;;;;;4940097;28;88270;-73
2022/06/19 11:24:33;;;;;;;79.85;54.85;;;22.00;60.00;;;;;;4953577;28;90319;-74
2022/06/19 11:27:00;;;;;;;76.63;55.95;;;22.10;60.10;;;;;;4930945;28;88850;-75
2022/06/19 11:29:29;;;;;;;72.30;56.42;;;22.30;60.60;;;;;;4958312;28;91153;-74
2022/06/19 11:32:11;;;;;;;77.57;57.80;;;22.20;61.30;;;;;;4943481;28;88567;-74
2022/06/19 11:34:46;;;;;;;77.32;56.97;;;21.70;63.60;;;;;;4938744;28;93257;-73
2022/06/19 11:37:47;;;;;;;79.88;57.45;;;22.00;63.50;;;;;;4941312;28;89085;-74
2022/06/19 11:40:18;;;;;;;75.13;55.13;;;21.60;65.20;;;;;;4944338;28;89816;-74
2022/06/19 11:42:52;;;;;;;72.15;55.65;;;21.90;65.40;;;;;;4928348;28;96016;-74
2022/06/19 11:45:17;;;;;;;76.15;56.88;;;21.80;66.10;;;;;;4922826;28;92721;-75
2022/06/19 11:48:07;;;;;;;76.35;57.75;;;21.60;66.10;;;;;;4924243;28;92884;-75
2022/06/19 11:50:33;;;;;;;75.80;55.88;;;21.40;67.50;;;;;;4946098;28;90164;-72
2022/06/19 11:53:15;;;;;;;77.22;57.05;;;21.10;68.90;;;;;;4929255;28;90790;-74
2022/06/19 11:55:50;;;;;;;79.35;57.47;;;21.20;68.40;;;;;;4934696;28;92155;-70
2022/06/19 11:58:21;;;;;;;75.65;56.03;;;21.40;68.10;;;;;;4927327;28;91276;-74
2022/06/19 12:01:13;;;;;;;75.05;56.13;;;21.70;67.40;;;;;;4952697;28;89543;-75
2022/06/19 12:03:57;;;;;;;75.32;56.47;;;21.80;66.40;;;;;;4952724;28;90086;-73
2022/06/19 12:06:50;;;;;;;77.05;56.55;;;21.80;65.50;;;;;;4931193;28;92077;-74
2022/06/19 12:09:32;;;;;;;72.65;55.05;;;21.90;64.90;;;;;;4932173;28;90165;-75
2022/06/19 12:12:10;;;;;;;75.53;57.00;;;22.00;65.60;;;;;;4932701;28;90397;-74
2022/06/19 12:14:48;;;;;;;74.57;55.17;;;21.50;67.10;;;;;;4944058;28;89730;-73
2022/06/19 12:17:21;;;;;;;75.03;55.63;;;21.50;67.30;;;;;;4934577;28;92179;-74
2022/06/19 12:20:17;;;;;;;73.43;55.60;;;21.60;66.00;;;;;;4947647;28;91750;-74
2022/06/19 12:23:04;;;;;;;73.00;54.80;;;21.60;66.10;;;;;;4941021;28;92640;-73
2022/06/19 12:25:34;;;;;;;70.88;54.65;;;21.60;65.80;;;;;;4940365;28;91619;-75
2022/06/19 12:28:21;;;;;;;69.25;54.75;;;21.70;66.50;;;;;;4935887;28;90692;-74
2022/06/19 12:31:11;;;;;;;72.57;55.15;;;21.70;64.80;;;;;;4948214;28;89879;-77
2022/06/19 12:33:46;;;;;;;71.00;54.60;;;21.60;64.60;;;;;;4934294;28;90997;-76
2022/06/19 12:36:18;;;;;;;71.65;53.90;;;21.60;64.80;;;;;;4946553;28;89529;-76
2022/06/19 12:38:45;;;;;;;70.40;54.08;;;21.20;66.40;;;;;;4928686;28;90273;-75
2022/06/19 12:41:18;;;;;;;66.10;53.00;;;21.20;65.90;;;;;;4935147;28;91416;-77
2022/06/19 12:44:04;;;;;;;68.95;53.38;;;21.30;65.00;;;;;;4925460;28;90347;-77
2022/06/19 12:46:45;;;;;;;69.97;52.83;;;21.00;66.30;;;;;;4942320;28;90232;-76
2022/06/19 12:49:11;;;;;;;;;;;20.90;66.30;;;;;;4925682;28;94154;-77
2022/06/19 12:51:43;;;;;;;68.70;52.28;;;21.00;67.00;;;;;;4948027;28;89826;-76
2022/06/19 12:54:36;;;;;;;68.30;52.55;;;21.20;66.50;;;;;;4944377;28;90386;-75
2022/06/19 12:57:07;;;;;;;68.85;52.97;;;21.60;65.60;;;;;;4949869;28;90040;-76